createdAt,value
2023-04-20T00:01:34.625Z,3.58
2023-04-20T00:04:25.946Z,2.65
2023-04-20T00:07:17.746Z,1.82
2023-04-20T00:10:12.696Z,3.62
2023-04-20T00:13:03.707Z,2.60
2023-04-20T00:15:57.479Z,2.25
2023-04-20T00:18:52.754Z,3.33
2023-04-20T00:21:44.260Z,2.35
2023-04-20T00:24:39.306Z,3.27
2023-04-20T00:27:30.946Z,3.80
2023-04-20T00:30:24.109Z,3.67
2023-04-20T00:33:15.700Z,2.67
2023-04-20T00:36:08.668Z,2.80
2023-04-20T00:39:01.420Z,3.72
2023-04-20T00:41:55.376Z,2.87
2023-04-20T00:44:46.903Z,2.37
2023-04-20T00:47:40.038Z,2.60
2023-04-20T00:50:31.648Z,2.40
2023-04-20T00:53:23.419Z,3.30
2023-04-20T00:56:19.457Z,3.08
2023-04-20T00:59:11.372Z,3.42
2023-04-20T01:02:06.834Z,2.55
2023-04-20T01:04:58.228Z,3.35
2023-04-20T01:07:49.862Z,3.80
2023-04-20T01:10:42.805Z,2.27
2023-04-20T01:13:38.026Z,3.05
2023-04-20T01:16:30.025Z,2.92
2023-04-20T01:19:32.716Z,4.60
2023-04-20T01:22:27.214Z,3.15
2023-04-20T01:25:19.078Z,2.05
2023-04-20T01:28:10.638Z,2.10
2023-04-20T01:31:02.002Z,2.10
2023-04-20T01:33:54.858Z,3.00
2023-04-20T01:39:27.604Z,2.12
2023-04-20T01:42:18.757Z,2.83
2023-04-20T01:45:11.832Z,2.62
2023-04-20T01:48:04.487Z,2.83
2023-04-20T01:50:56.793Z,2.00
2023-04-20T01:53:48.142Z,1.98
2023-04-20T01:56:39.617Z,2.20
2023-04-20T01:59:31.214Z,2.08
2023-04-20T02:02:24.450Z,2.72
2023-04-20T02:05:16.040Z,3.77
2023-04-20T02:08:07.583Z,2.08
2023-04-20T02:10:58.851Z,3.05
2023-04-20T02:13:50.411Z,3.33
2023-04-20T02:16:42.714Z,3.02
2023-04-20T02:19:33.888Z,3.52
2023-04-20T02:22:25.070Z,3.87
2023-04-20T02:25:16.910Z,2.98
2023-04-20T02:28:09.958Z,3.05
2023-04-20T02:31:02.390Z,2.25
2023-04-20T02:33:53.535Z,2.52
2023-04-20T02:36:45.113Z,1.87
2023-04-20T02:39:36.244Z,2.02
2023-04-20T02:42:29.744Z,1.87
2023-04-20T02:45:21.337Z,2.50
2023-04-20T02:48:13.588Z,2.40
2023-04-20T02:51:05.170Z,2.70
2023-04-20T02:56:38.460Z,3.33
2023-04-20T02:59:31.352Z,2.75
2023-04-20T03:02:27.830Z,2.58
2023-04-20T03:05:19.478Z,4.20
2023-04-20T03:08:11.779Z,3.45
2023-04-20T03:11:03.250Z,2.50
2023-04-20T03:13:54.724Z,3.25
2023-04-20T03:16:46.954Z,3.87
2023-04-20T03:19:38.579Z,3.08
2023-04-20T03:22:30.031Z,3.67
2023-04-20T03:25:22.765Z,3.42
2023-04-20T03:28:18.753Z,3.12
2023-04-20T03:31:10.868Z,4.97
2023-04-20T03:34:02.526Z,3.08
2023-04-20T03:36:54.312Z,2.95
2023-04-20T03:39:46.300Z,3.05
2023-04-20T03:42:38.197Z,3.75
2023-04-20T03:45:30.022Z,2.70
2023-04-20T03:48:21.534Z,3.58
2023-04-20T03:51:13.034Z,4.85
2023-04-20T03:54:04.319Z,2.50
2023-04-20T03:56:56.143Z,3.47
2023-04-20T03:59:47.587Z,2.65
2023-04-20T04:02:40.257Z,5.30
2023-04-20T04:05:32.102Z,4.15
2023-04-20T04:08:23.807Z,3.20
2023-04-20T04:11:16.569Z,4.45
2023-04-20T04:14:07.707Z,4.85
2023-04-20T04:17:00.199Z,3.00
2023-04-20T04:19:52.772Z,2.83
2023-04-20T04:22:45.141Z,3.58
2023-04-20T04:25:56.684Z,3.75
2023-04-20T04:28:49.497Z,4.08
2023-04-20T04:31:42.830Z,2.77
2023-04-20T04:34:38.647Z,3.87
2023-04-20T04:37:31.079Z,3.00
2023-04-20T04:40:22.487Z,4.12
2023-04-20T04:43:16.352Z,2.80
2023-04-20T04:46:10.885Z,2.87
2023-04-20T04:49:03.055Z,3.20
2023-04-20T04:51:54.282Z,3.20
2023-04-20T04:54:45.977Z,3.25
2023-04-20T04:57:38.827Z,4.72
2023-04-20T05:00:33.547Z,3.00
2023-04-20T05:03:26.295Z,3.40
2023-04-20T05:06:21.687Z,3.65
2023-04-20T05:09:16.381Z,3.27
2023-04-20T05:12:11.661Z,2.37
2023-04-20T05:15:04.874Z,5.05
2023-04-20T05:17:56.538Z,4.78
2023-04-20T05:20:50.355Z,3.45
2023-04-20T05:23:44.370Z,3.60
2023-04-20T05:26:45.855Z,3.98
2023-04-20T05:35:04.168Z,4.00
2023-04-20T05:37:55.941Z,4.87
2023-04-20T05:40:47.864Z,2.87
2023-04-20T05:43:39.487Z,3.30
2023-04-20T05:46:33.602Z,3.10
2023-04-20T05:49:26.354Z,3.30
2023-04-20T05:52:20.732Z,4.10
2023-04-20T05:55:17.932Z,4.37
2023-04-20T05:58:09.861Z,4.05
2023-04-20T06:01:04.725Z,3.25
2023-04-20T06:03:59.251Z,8.95
2023-04-20T06:06:51.261Z,4.92
2023-04-20T06:09:43.030Z,3.72
2023-04-20T06:12:34.913Z,4.25
2023-04-20T06:15:27.159Z,3.65
2023-04-20T06:18:18.703Z,3.72
2023-04-20T06:21:12.169Z,4.15
2023-04-20T06:24:03.906Z,3.67
2023-04-20T06:26:55.520Z,5.62
2023-04-20T06:29:46.755Z,9.08
2023-04-20T06:32:38.965Z,4.60
2023-04-20T06:35:31.713Z,4.80
2023-04-20T06:38:25.576Z,6.65
2023-04-20T06:41:24.747Z,7.08
2023-04-20T06:44:16.055Z,5.53
2023-04-20T06:47:07.994Z,4.97
2023-04-20T06:49:59.908Z,7.17
2023-04-20T06:52:51.394Z,6.12
2023-04-20T06:55:43.272Z,7.50
2023-04-20T06:58:38.353Z,7.17
2023-04-20T07:01:30.334Z,4.12
2023-04-20T07:04:22.584Z,6.80
2023-04-20T07:07:15.862Z,5.87
2023-04-20T07:10:12.327Z,5.05
2023-04-20T07:13:04.320Z,4.90
2023-04-20T07:15:55.638Z,5.58
2023-04-20T07:21:59.949Z,7.50
2023-04-20T07:24:51.886Z,5.50
2023-04-20T07:27:43.844Z,4.78
2023-04-20T07:30:35.336Z,4.20
2023-04-20T07:33:27.954Z,4.22
2023-04-20T07:36:19.934Z,6.35
2023-04-20T07:39:11.449Z,6.25
2023-04-20T07:42:04.963Z,5.92
2023-04-20T07:44:56.724Z,6.17
2023-04-20T07:47:49.793Z,5.95
2023-04-20T07:50:41.701Z,6.03
2023-04-20T07:53:36.166Z,11.25
2023-04-20T07:56:27.766Z,5.95
2023-04-20T07:59:19.260Z,6.40
2023-04-20T08:04:54.268Z,4.65
2023-04-20T08:07:46.148Z,5.22
2023-04-20T08:10:37.881Z,6.90
2023-04-20T08:13:35.442Z,10.32
2023-04-20T08:16:22.900Z,8.95
2023-04-20T08:22:08.823Z,5.12
2023-04-20T08:25:00.286Z,5.40
2023-04-20T08:27:52.888Z,5.80
2023-04-20T08:30:47.128Z,7.75
2023-04-20T08:33:42.043Z,5.33
2023-04-20T08:36:33.624Z,6.10
2023-04-20T08:39:25.219Z,6.35
2023-04-20T08:42:17.183Z,7.05
2023-04-20T08:45:10.526Z,6.55
2023-04-20T08:48:04.104Z,6.62
2023-04-20T08:50:56.170Z,5.05
2023-04-20T08:53:47.764Z,5.12
2023-04-20T08:56:43.721Z,6.30
2023-04-20T08:59:39.791Z,5.22
2023-04-20T09:02:31.367Z,7.10
2023-04-20T09:08:12.052Z,9.15
2023-04-20T09:11:03.421Z,6.85
2023-04-20T09:14:02.831Z,6.42
2023-04-20T09:16:57.361Z,6.72
2023-04-20T09:19:50.570Z,8.03
2023-04-20T09:22:42.415Z,6.70
2023-04-20T09:25:35.466Z,5.40
2023-04-20T09:28:30.762Z,6.17
2023-04-20T09:31:23.240Z,6.58
2023-04-20T09:34:15.154Z,6.35
2023-04-20T09:37:10.377Z,7.83
2023-04-20T09:40:03.923Z,6.12
2023-04-20T09:42:56.699Z,6.03
2023-04-20T09:45:49.364Z,6.55
2023-04-20T09:48:41.030Z,5.85
2023-04-20T09:51:35.604Z,6.12
2023-04-20T09:54:27.470Z,4.83
2023-04-20T09:57:21.044Z,5.53
2023-04-20T10:00:18.254Z,7.35
2023-04-20T10:03:11.296Z,5.65
2023-04-20T10:06:02.963Z,4.15
2023-04-20T10:08:55.713Z,3.95
2023-04-20T10:11:53.350Z,4.67
2023-04-20T10:14:40.116Z,5.35
2023-04-20T10:20:24.568Z,5.55
2023-04-20T10:23:16.649Z,4.78
2023-04-20T10:26:09.824Z,5.67
2023-04-20T10:29:02.278Z,3.22
2023-04-20T10:31:56.969Z,4.78
2023-04-20T10:34:48.834Z,5.67
2023-04-20T10:37:49.811Z,5.03
2023-04-20T10:40:45.378Z,5.08
2023-04-20T10:43:38.648Z,1.98
2023-04-20T10:46:38.262Z,4.55
2023-04-20T10:49:32.636Z,4.40
2023-04-20T10:52:36.378Z,6.58
2023-04-20T10:55:28.720Z,5.87
2023-04-20T10:58:25.501Z,7.83
2023-04-20T11:01:17.615Z,11.30
2023-04-20T11:04:10.664Z,8.85
2023-04-20T11:07:09.177Z,8.75
2023-04-20T11:10:00.898Z,8.10
2023-04-20T11:12:53.406Z,7.22
2023-04-20T11:15:45.204Z,6.25
2023-04-20T11:18:38.021Z,3.65
2023-04-20T11:21:40.813Z,4.10
2023-04-20T11:27:23.524Z,4.25
2023-04-20T11:30:16.032Z,4.65
2023-04-20T11:33:07.934Z,3.60
2023-04-20T11:36:00.023Z,4.47
2023-04-20T11:38:51.673Z,5.87
2023-04-20T11:41:42.720Z,5.37
2023-04-20T11:47:15.291Z,5.62
2023-04-20T11:50:10.429Z,5.80
2023-04-20T11:53:05.976Z,4.67
2023-04-20T11:55:57.621Z,5.75
2023-04-20T11:58:49.387Z,4.75
2023-04-20T12:01:41.173Z,6.35
2023-04-20T12:04:36.890Z,6.30
2023-04-20T12:07:30.196Z,10.63
2023-04-20T12:10:21.798Z,9.03
2023-04-20T12:13:13.713Z,9.85
2023-04-20T12:16:05.986Z,9.40
2023-04-20T12:18:57.670Z,10.05
2023-04-20T12:21:49.196Z,9.95
2023-04-20T12:24:40.613Z,8.93
2023-04-20T12:27:32.335Z,8.58
2023-04-20T12:30:24.059Z,10.05
2023-04-20T12:33:17.249Z,8.05
2023-04-20T12:36:09.514Z,7.12
2023-04-20T12:39:02.069Z,7.08
2023-04-20T12:41:53.617Z,5.40
2023-04-20T12:44:45.398Z,6.75
2023-04-20T12:47:36.679Z,4.72
2023-04-20T12:50:28.185Z,8.78
2023-04-20T12:53:20.067Z,5.20
2023-04-20T12:56:11.574Z,5.15
2023-04-20T12:59:04.513Z,5.05
2023-04-20T13:01:56.347Z,5.83
2023-04-20T13:04:48.070Z,4.83
2023-04-20T13:07:39.552Z,5.70
2023-04-20T13:10:31.080Z,8.88
2023-04-20T13:13:22.373Z,7.28
2023-04-20T13:16:14.507Z,9.73
2023-04-20T13:19:05.931Z,8.23
2023-04-20T13:21:57.526Z,8.63
2023-04-20T13:24:49.194Z,8.55
2023-04-20T13:27:48.107Z,8.05
2023-04-20T13:30:40.339Z,16.42
2023-04-20T13:33:32.008Z,8.30
2023-04-20T13:36:23.957Z,8.20
2023-04-20T13:39:20.272Z,7.53
2023-04-20T13:42:12.267Z,11.00
2023-04-20T13:45:04.203Z,7.08
2023-04-20T13:47:56.073Z,8.80
2023-04-20T13:50:48.185Z,8.95
2023-04-20T13:53:39.388Z,9.40
2023-04-20T13:56:30.648Z,6.22
2023-04-20T13:59:23.029Z,8.13
2023-04-20T14:02:16.426Z,6.65
2023-04-20T14:05:10.469Z,8.13
2023-04-20T14:08:02.099Z,6.40
2023-04-20T14:10:53.399Z,6.92
2023-04-20T14:13:45.195Z,5.55
2023-04-20T14:16:38.212Z,5.80
2023-04-20T14:19:29.669Z,5.17
2023-04-20T14:22:21.089Z,6.00
2023-04-20T14:25:13.423Z,5.58
2023-04-20T14:28:05.353Z,6.92
2023-04-20T14:30:57.038Z,4.80
2023-04-20T14:33:48.567Z,5.70
2023-04-20T14:36:44.016Z,5.10
2023-04-20T14:39:35.579Z,5.17
2023-04-20T14:42:49.867Z,5.12
2023-04-20T14:45:44.502Z,5.87
2023-04-20T14:48:43.077Z,4.75
2023-04-20T14:51:37.534Z,4.05
2023-04-20T14:54:30.057Z,4.37
2023-04-20T14:57:22.081Z,4.53
2023-04-20T15:00:18.352Z,5.08
2023-04-20T15:03:09.882Z,3.98
2023-04-20T15:06:04.282Z,5.17
2023-04-20T15:08:57.192Z,3.75
2023-04-20T15:11:48.898Z,4.08
2023-04-20T15:14:40.505Z,3.40
2023-04-20T15:17:32.313Z,3.00
2023-04-20T15:20:25.499Z,4.47
2023-04-20T15:23:17.094Z,5.45
2023-04-20T15:26:10.356Z,4.20
2023-04-20T15:29:02.131Z,8.53
2023-04-20T15:31:53.938Z,3.42
2023-04-20T15:34:45.662Z,3.35
2023-04-20T15:37:38.454Z,3.47
2023-04-20T15:40:29.748Z,6.78
2023-04-20T15:43:21.142Z,3.05
2023-04-20T15:46:13.095Z,2.10
2023-04-20T15:49:05.360Z,2.00
2023-04-20T15:51:56.816Z,2.20
2023-04-20T15:54:49.422Z,2.40
2023-04-20T15:57:43.814Z,3.00
2023-04-20T16:00:37.050Z,2.98
2023-04-20T16:03:28.697Z,3.17
2023-04-20T16:06:20.331Z,2.50
2023-04-20T16:09:11.581Z,2.30
2023-04-20T16:14:43.726Z,3.25
2023-04-20T16:17:35.004Z,2.55
2023-04-20T16:20:26.826Z,2.02
2023-04-20T16:23:18.565Z,2.02
2023-04-20T16:26:10.292Z,2.00
2023-04-20T16:29:01.996Z,2.40
2023-04-20T16:31:53.636Z,2.52
2023-04-20T16:34:45.549Z,2.33
2023-04-20T16:37:36.968Z,2.40
2023-04-20T16:40:28.735Z,2.60
2023-04-20T16:43:19.995Z,3.00
2023-04-20T16:48:57.253Z,3.98
2023-04-20T16:51:48.889Z,4.25
2023-04-20T16:54:42.186Z,2.80
2023-04-20T16:57:37.720Z,2.62
2023-04-20T17:00:30.484Z,4.15
2023-04-20T17:03:25.418Z,3.00
2023-04-20T17:06:17.343Z,5.53
2023-04-20T17:09:11.462Z,4.85
2023-04-20T17:12:03.360Z,5.47
2023-04-20T17:14:54.670Z,4.72
2023-04-20T17:17:46.531Z,4.08
2023-04-20T17:20:38.285Z,4.87
2023-04-20T17:23:30.041Z,3.87
2023-04-20T17:26:21.877Z,4.47
2023-04-20T17:29:13.767Z,4.37
2023-04-20T17:32:05.621Z,4.58
2023-04-20T17:35:00.768Z,5.62
2023-04-20T17:37:52.284Z,6.20
2023-04-20T17:40:43.909Z,4.65
2023-04-20T17:43:37.208Z,4.28
2023-04-20T17:46:28.855Z,4.78
2023-04-20T17:49:20.477Z,4.72
2023-04-20T17:52:13.786Z,3.50
2023-04-20T17:55:06.075Z,4.05
2023-04-20T17:57:59.304Z,4.37
2023-04-20T18:03:31.872Z,3.50
2023-04-20T18:06:23.711Z,4.60
2023-04-20T18:09:15.157Z,5.78
2023-04-20T18:12:08.009Z,4.60
2023-04-20T18:14:59.730Z,4.17
2023-04-20T18:17:51.907Z,7.25
2023-04-20T18:20:43.541Z,3.25
2023-04-20T18:23:35.272Z,3.37
2023-04-20T18:26:26.776Z,4.60
2023-04-20T18:29:18.291Z,3.58
2023-04-20T18:32:13.545Z,4.55
2023-04-20T18:35:05.057Z,4.28
2023-04-20T18:40:37.144Z,3.08
2023-04-20T18:43:28.897Z,3.50
2023-04-20T18:46:21.258Z,4.90
2023-04-20T18:49:13.252Z,3.70
2023-04-20T18:52:04.969Z,4.95
2023-04-20T18:54:56.596Z,3.37
2023-04-20T18:57:49.628Z,4.45
2023-04-20T19:00:41.073Z,4.80
2023-04-20T19:03:33.101Z,3.98
2023-04-20T19:06:25.407Z,4.28
2023-04-20T19:09:17.344Z,3.55
2023-04-20T19:12:09.173Z,5.60
2023-04-20T19:15:00.895Z,5.30
2023-04-20T19:17:52.297Z,5.12
2023-04-20T19:20:44.150Z,5.87
2023-04-20T19:23:36.749Z,5.85
2023-04-20T19:26:29.684Z,5.60
2023-04-20T19:29:23.710Z,7.25
2023-04-20T19:32:15.356Z,4.58
2023-04-20T19:35:07.815Z,3.85
2023-04-20T19:38:02.029Z,4.95
2023-04-20T19:41:15.813Z,4.08
2023-04-20T19:44:53.715Z,4.17
2023-04-20T19:47:45.637Z,3.85
2023-04-20T19:50:38.548Z,4.65
2023-04-20T19:53:30.315Z,5.33
2023-04-20T19:56:22.101Z,4.17
2023-04-20T19:59:13.496Z,3.95
2023-04-20T20:02:05.105Z,3.83
2023-04-20T20:04:57.011Z,4.00
2023-04-20T20:07:48.561Z,5.00
2023-04-20T20:10:42.661Z,5.55
2023-04-20T20:13:37.312Z,6.67
2023-04-20T20:16:37.711Z,5.53
2023-04-20T20:19:41.271Z,6.20
2023-04-20T20:22:41.053Z,7.70
2023-04-20T20:25:35.988Z,6.03
2023-04-20T20:28:31.576Z,7.55
2023-04-20T20:31:59.570Z,6.78
2023-04-20T20:34:55.539Z,7.20
2023-04-20T20:37:48.130Z,7.47
2023-04-20T20:40:40.748Z,7.30
2023-04-20T20:43:35.467Z,7.55
2023-04-20T20:46:29.739Z,6.90
2023-04-20T20:49:23.149Z,9.15
2023-04-20T20:52:17.377Z,7.30
2023-04-20T20:55:10.387Z,5.70
2023-04-20T20:58:01.726Z,5.75
2023-04-20T21:00:53.345Z,4.60
2023-04-20T21:03:45.429Z,5.03
2023-04-20T21:06:39.368Z,5.42
2023-04-20T21:09:40.077Z,4.17
2023-04-20T21:12:34.633Z,6.08
2023-04-20T21:15:26.455Z,4.92
2023-04-20T21:18:17.934Z,7.70
2023-04-20T21:21:10.654Z,5.97
2023-04-20T21:24:01.884Z,4.78
2023-04-20T21:26:53.036Z,5.60
2023-04-20T21:29:45.764Z,5.12
2023-04-20T21:32:36.890Z,5.70
2023-04-20T21:35:28.480Z,6.65
2023-04-20T21:38:19.819Z,6.37
2023-04-20T21:41:11.300Z,5.30
2023-04-20T21:44:03.250Z,7.28
2023-04-20T21:46:56.607Z,5.37
2023-04-20T21:53:36.567Z,5.65
2023-04-20T21:56:28.582Z,5.00
2023-04-20T21:59:20.179Z,4.35
2023-04-20T22:02:11.977Z,4.78
2023-04-20T22:05:04.423Z,5.60
2023-04-20T22:07:57.381Z,4.85
2023-04-20T22:10:48.694Z,4.78
2023-04-20T22:13:40.193Z,5.42
2023-04-20T22:16:41.736Z,5.25
2023-04-20T22:19:34.946Z,4.15
2023-04-20T22:22:26.426Z,5.00
2023-04-20T22:25:17.764Z,4.97
2023-04-20T22:28:08.795Z,5.08
2023-04-20T22:31:00.567Z,4.22
2023-04-20T22:33:51.873Z,4.28
2023-04-20T22:36:43.448Z,5.00
2023-04-20T22:39:35.010Z,5.58
2023-04-20T22:42:28.318Z,5.87
2023-04-20T22:45:22.583Z,5.65
2023-04-20T22:48:20.161Z,5.35
2023-04-20T22:51:12.027Z,4.87
2023-04-20T22:54:04.416Z,5.45
2023-04-20T22:56:55.903Z,5.35
2023-04-20T22:59:49.689Z,5.12
2023-04-20T23:02:53.562Z,5.40
2023-04-20T23:08:25.549Z,4.65
2023-04-20T23:11:17.956Z,4.72
2023-04-20T23:14:09.917Z,4.05
2023-04-20T23:17:01.199Z,3.92
2023-04-20T23:19:52.938Z,4.90
2023-04-20T23:22:44.190Z,5.80
2023-04-20T23:25:35.762Z,4.70
2023-04-20T23:28:27.178Z,5.95
2023-04-20T23:31:27.676Z,6.33
2023-04-20T23:34:19.264Z,4.65
2023-04-20T23:37:11.686Z,5.45
2023-04-20T23:40:07.320Z,5.65
2023-04-20T23:42:58.723Z,7.75
2023-04-20T23:45:50.246Z,5.53
2023-04-20T23:48:41.759Z,6.20
2023-04-20T23:51:33.328Z,5.30
2023-04-20T23:54:24.674Z,4.75
2023-04-20T23:57:15.935Z,5.47
